Time;durP1;ratioP1;P1;durP2;ratioP2;P2;SDS_P1;SDS_P2;PMS_P1;PMS_P2;Temp;Humidity;BMP_temperature;BMP_pressure;BME280_temperature;BME280_humidity;BME280_pressure;Samples;Min_cycle;Max_cycle;Signal;HPM_P1;HPM_P2
2023/04/20 00:01:04;;;;;;;5.25;2.15;;;10.50;99.90;;;;;;5032713;28;20034;-36
2023/04/20 00:03:31;;;;;;;3.88;2.50;;;10.50;99.90;;;;;;5031531;28;20041;-36
2023/04/20 00:06:01;;;;;;;3.88;2.08;;;10.50;99.90;;;;;;5031811;28;20502;-36
2023/04/20 00:08:27;;;;;;;5.15;2.70;;;10.50;99.90;;;;;;5033272;28;20031;-35
2023/04/20 00:10:52;;;;;;;5.85;2.80;;;10.50;99.90;;;;;;5032866;28;20029;-36
2023/04/20 00:13:18;;;;;;;6.80;3.15;;;10.50;99.90;;;;;;5032767;28;20459;-37
2023/04/20 00:15:44;;;;;;;4.03;2.60;;;10.50;99.90;;;;;;5033982;28;20997;-37
2023/04/20 00:18:09;;;;;;;5.50;2.55;;;10.50;99.90;;;;;;5032147;28;20083;-37
2023/04/20 00:20:35;;;;;;;5.78;2.20;;;10.50;99.90;;;;;;5032814;28;20017;-37
2023/04/20 00:23:01;;;;;;;3.20;2.35;;;10.40;99.90;;;;;;5032480;28;20025;-36
2023/04/20 00:25:28;;;;;;;3.50;2.03;;;10.40;99.90;;;;;;5031796;28;20029;-37
2023/04/20 00:27:54;;;;;;;3.88;2.17;;;10.40;99.90;;;;;;5030922;28;20068;-38
2023/04/20 00:30:19;;;;;;;4.03;2.42;;;10.40;99.90;;;;;;5032544;28;20423;-39
2023/04/20 00:32:45;;;;;;;3.95;2.33;;;10.40;99.90;;;;;;5031466;28;20061;-39
2023/04/20 00:35:11;;;;;;;4.43;2.15;;;10.40;99.90;;;;;;5032079;28;20036;-36
2023/04/20 00:37:37;;;;;;;4.97;2.47;;;10.40;99.90;;;;;;5030500;28;20029;-37
2023/04/20 00:40:03;;;;;;;3.05;2.20;;;10.40;99.90;;;;;;5029740;28;20511;-37
2023/04/20 00:42:29;;;;;;;5.38;2.40;;;10.30;99.90;;;;;;5030960;28;20096;-37
2023/04/20 00:44:54;;;;;;;8.82;3.50;;;10.40;99.90;;;;;;5031393;28;20156;-35
2023/04/20 00:47:20;;;;;;;7.32;3.10;;;10.30;99.90;;;;;;5030444;28;20030;-36
2023/04/20 00:49:46;;;;;;;7.68;2.40;;;10.30;99.90;;;;;;5032288;28;20036;-37
2023/04/20 00:52:12;;;;;;;8.75;2.33;;;10.30;99.90;;;;;;5031442;28;20508;-37
2023/04/20 00:54:38;;;;;;;6.00;2.40;;;10.30;99.90;;;;;;5030806;28;20026;-38
2023/04/20 00:57:04;;;;;;;3.75;2.42;;;10.30;99.90;;;;;;5030552;28;20025;-39
2023/04/20 00:59:30;;;;;;;6.85;2.20;;;10.30;99.90;;;;;;5032480;28;20022;-36
2023/04/20 01:01:56;;;;;;;4.95;2.58;;;10.30;99.90;;;;;;5031154;28;20021;-37
2023/04/20 01:04:22;;;;;;;4.07;2.50;;;10.30;99.90;;;;;;5031758;28;20037;-35
2023/04/20 01:06:48;;;;;;;5.20;2.25;;;10.30;99.90;;;;;;5030958;28;20037;-37
2023/04/20 01:09:13;;;;;;;6.47;2.38;;;10.20;99.90;;;;;;5030780;28;20025;-34
2023/04/20 01:11:39;;;;;;;4.05;2.58;;;10.30;99.90;;;;;;5031770;28;20369;-37
2023/04/20 01:14:05;;;;;;;4.13;2.65;;;10.20;99.90;;;;;;5033788;28;20076;-37
2023/04/20 01:16:33;;;;;;;5.07;2.53;;;10.30;99.90;;;;;;5034373;28;20487;-37
2023/04/20 01:18:59;;;;;;;4.30;2.80;;;10.20;99.90;;;;;;5034402;28;20025;-36
2023/04/20 01:21:25;;;;;;;4.13;2.08;;;10.20;99.90;;;;;;5034450;28;20025;-36
2023/04/20 01:23:51;;;;;;;3.55;2.38;;;10.20;99.90;;;;;;5036140;28;20025;-37
2023/04/20 01:26:18;;;;;;;3.55;2.53;;;10.20;99.90;;;;;;5034891;28;20083;-36
2023/04/20 01:28:45;;;;;;;5.13;2.40;;;10.20;99.90;;;;;;5035606;28;20037;-36
2023/04/20 01:31:11;;;;;;;6.15;2.53;;;10.20;99.90;;;;;;5034810;28;20026;-38
2023/04/20 01:33:37;;;;;;;5.03;2.35;;;10.20;99.90;;;;;;5035276;28;20029;-36
2023/04/20 01:36:05;;;;;;;3.72;2.28;;;10.20;99.90;;;;;;5035399;28;20103;-40
2023/04/20 01:38:31;;;;;;;4.25;2.42;;;10.20;99.90;;;;;;5035428;28;20022;-35
2023/04/20 01:40:58;;;;;;;5.05;2.50;;;10.20;99.90;;;;;;5035376;28;20025;-34
2023/04/20 01:43:24;;;;;;;4.35;2.55;;;10.20;99.90;;;;;;5035964;28;20431;-36
2023/04/20 01:45:49;;;;;;;2.65;2.17;;;10.20;99.90;;;;;;5034434;28;20029;-35
2023/04/20 01:48:15;;;;;;;3.60;2.10;;;10.20;99.90;;;;;;5033964;28;20026;-35
2023/04/20 01:50:41;;;;;;;3.50;2.25;;;10.20;99.90;;;;;;5034644;28;20025;-38
2023/04/20 01:53:06;;;;;;;10.15;2.15;;;10.10;99.90;;;;;;5034883;28;20049;-36
2023/04/20 01:55:32;;;;;;;5.13;2.38;;;10.10;99.90;;;;;;5034842;28;20021;-36
2023/04/20 01:57:58;;;;;;;4.20;2.40;;;10.10;99.90;;;;;;5033580;28;20036;-36
2023/04/20 02:00:25;;;;;;;3.15;2.15;;;10.10;99.90;;;;;;5033914;28;20272;-36
2023/04/20 02:02:51;;;;;;;5.25;2.00;;;10.10;99.90;;;;;;5034235;28;20033;-37
2023/04/20 02:05:17;;;;;;;6.13;2.50;;;10.10;99.90;;;;;;5035030;28;20084;-38
2023/04/20 02:07:43;;;;;;;4.13;2.50;;;10.10;99.90;;;;;;5033670;28;20033;-36
2023/04/20 02:10:09;;;;;;;5.40;2.25;;;10.10;99.90;;;;;;5033508;28;20488;-37
2023/04/20 02:12:35;;;;;;;4.70;2.60;;;10.10;99.90;;;;;;5034715;28;20116;-39
2023/04/20 02:15:01;;;;;;;3.95;2.50;;;10.10;99.90;;;;;;5034754;28;20056;-36
2023/04/20 02:17:26;;;;;;;5.05;2.38;;;10.10;99.90;;;;;;5034603;28;20056;-34
2023/04/20 02:19:52;;;;;;;7.03;2.40;;;10.10;99.90;;;;;;5034263;28;20029;-39
2023/04/20 02:22:17;;;;;;;3.35;2.55;;;10.00;99.90;;;;;;5034048;28;20022;-36
2023/04/20 02:24:43;;;;;;;4.45;2.30;;;10.10;99.90;;;;;;5033000;28;20468;-39
2023/04/20 02:27:09;;;;;;;4.40;2.50;;;10.10;99.90;;;;;;5033495;28;20029;-35
2023/04/20 02:29:35;;;;;;;3.60;2.28;;;10.00;99.90;;;;;;5033825;28;20033;-38
2023/04/20 02:32:01;;;;;;;5.28;2.70;;;10.00;99.90;;;;;;5033152;28;20064;-36
2023/04/20 02:34:26;;;;;;;3.83;2.40;;;10.00;99.90;;;;;;5033421;28;20040;-36
2023/04/20 02:36:52;;;;;;;5.05;2.63;;;10.00;99.90;;;;;;5033006;28;20060;-36
2023/04/20 02:39:17;;;;;;;4.95;2.25;;;10.00;99.90;;;;;;5033623;28;20022;-36
2023/04/20 02:41:43;;;;;;;3.90;2.28;;;10.00;99.90;;;;;;5033595;28;20072;-36
2023/04/20 02:44:09;;;;;;;5.10;2.50;;;10.00;99.90;;;;;;5034131;28;20029;-38
2023/04/20 02:46:34;;;;;;;8.18;2.53;;;10.00;99.90;;;;;;5033613;28;20041;-37
2023/04/20 02:49:02;;;;;;;3.63;2.30;;;10.00;99.90;;;;;;5032773;28;20053;-36
2023/04/20 02:51:28;;;;;;;3.38;2.45;;;9.90;99.90;;;;;;5032775;28;20550;-36
2023/04/20 02:53:54;;;;;;;5.55;2.50;;;10.00;99.90;;;;;;5034013;28;20105;-36
2023/04/20 02:56:20;;;;;;;3.50;2.40;;;9.90;99.90;;;;;;5033367;28;20061;-35
2023/04/20 02:58:47;;;;;;;2.95;2.05;;;10.00;99.90;;;;;;5033297;28;20025;-37
2023/04/20 03:01:13;;;;;;;9.13;2.38;;;9.90;99.90;;;;;;5032562;28;20033;-36
2023/04/20 03:03:39;;;;;;;5.15;2.75;;;10.00;99.90;;;;;;5032775;28;20064;-36
2023/04/20 03:06:05;;;;;;;3.20;2.22;;;9.90;99.90;;;;;;5033009;28;20049;-40
2023/04/20 03:08:30;;;;;;;2.97;2.35;;;9.90;99.90;;;;;;5032955;28;20047;-34
2023/04/20 03:10:56;;;;;;;8.52;4.18;;;9.90;99.90;;;;;;5032448;28;20602;-36
2023/04/20 03:13:22;;;;;;;12.77;5.45;;;9.90;99.90;;;;;;5033115;28;20026;-39
2023/04/20 03:15:47;;;;;;;10.30;5.10;;;9.90;99.90;;;;;;5031742;28;20392;-37
2023/04/20 03:18:15;;;;;;;6.10;3.08;;;9.90;99.90;;;;;;5032440;28;20060;-38
2023/04/20 03:20:40;;;;;;;6.65;3.10;;;9.90;99.90;;;;;;5032245;28;20025;-37
2023/04/20 03:23:06;;;;;;;6.50;3.33;;;9.90;99.90;;;;;;5033619;28;20032;-36
2023/04/20 03:25:32;;;;;;;8.98;3.45;;;9.90;99.90;;;;;;5032276;28;20040;-37
2023/04/20 03:27:58;;;;;;;6.88;3.10;;;9.80;99.90;;;;;;5031414;28;20033;-35
2023/04/20 03:30:24;;;;;;;4.95;2.92;;;9.80;99.90;;;;;;5033019;28;20136;-37
2023/04/20 03:32:49;;;;;;;6.13;2.85;;;9.90;99.90;;;;;;5032298;28;20574;-36
2023/04/20 03:35:16;;;;;;;7.30;2.78;;;9.90;99.90;;;;;;5033224;28;20104;-35
2023/04/20 03:37:42;;;;;;;5.63;2.88;;;9.80;99.90;;;;;;5031005;28;20013;-36
2023/04/20 03:40:09;;;;;;;5.68;2.75;;;9.80;99.90;;;;;;5032223;28;20071;-36
2023/04/20 03:42:36;;;;;;;4.78;2.65;;;9.80;99.90;;;;;;5033929;28;20185;-36
2023/04/20 03:45:02;;;;;;;5.90;2.72;;;9.80;99.90;;;;;;5034465;28;20032;-37
2023/04/20 03:47:28;;;;;;;4.90;2.72;;;9.70;99.90;;;;;;5032461;28;20116;-39
2023/04/20 03:49:54;;;;;;;4.15;2.40;;;9.80;99.90;;;;;;5031603;28;20108;-35
2023/04/20 03:52:20;;;;;;;7.95;2.83;;;9.80;99.90;;;;;;5033309;28;20032;-35
2023/04/20 03:54:45;;;;;;;5.65;3.00;;;9.80;99.90;;;;;;5031888;28;20037;-36
2023/04/20 03:57:12;;;;;;;6.60;2.90;;;9.70;99.90;;;;;;5032288;28;20080;-36
2023/04/20 03:59:37;;;;;;;4.10;2.92;;;9.80;99.90;;;;;;5032124;28;20430;-36
2023/04/20 04:02:04;;;;;;;6.97;3.00;;;9.80;99.90;;;;;;5032071;28;20018;-36
2023/04/20 04:04:30;;;;;;;4.78;2.80;;;9.70;99.90;;;;;;5031895;28;20387;-38
2023/04/20 04:06:56;;;;;;;4.55;2.53;;;9.70;99.90;;;;;;5030783;28;20027;-37
2023/04/20 04:09:21;;;;;;;6.40;3.03;;;9.70;99.90;;;;;;5031246;28;20492;-36
2023/04/20 04:11:47;;;;;;;5.88;3.22;;;9.70;99.90;;;;;;5031314;28;20025;-37
2023/04/20 04:14:12;;;;;;;5.82;2.92;;;9.70;99.90;;;;;;5031714;28;20240;-34
2023/04/20 04:16:38;;;;;;;4.90;2.90;;;9.70;99.90;;;;;;5031442;28;20029;-36
2023/04/20 04:19:04;;;;;;;3.80;2.42;;;9.70;99.90;;;;;;5032345;28;20054;-36
2023/04/20 04:21:29;;;;;;;5.43;2.95;;;9.70;99.90;;;;;;5031831;28;20480;-36
2023/04/20 04:23:55;;;;;;;4.15;2.65;;;9.70;99.90;;;;;;5031855;28;20025;-36
2023/04/20 04:26:23;;;;;;;10.15;2.75;;;9.70;99.90;;;;;;5030555;28;20420;-34
2023/04/20 04:28:51;;;;;;;5.55;2.85;;;9.70;99.90;;;;;;5031600;28;20076;-34
2023/04/20 04:31:20;;;;;;;4.43;2.70;;;9.70;99.90;;;;;;5031781;28;20025;-36
2023/04/20 04:33:46;;;;;;;6.80;3.15;;;9.70;99.90;;;;;;5031536;28;20021;-38
2023/04/20 04:36:14;;;;;;;4.55;2.53;;;9.60;99.90;;;;;;5030386;28;20032;-37
2023/04/20 04:38:43;;;;;;;4.80;2.70;;;9.60;99.90;;;;;;5030607;28;20400;-36
2023/04/20 04:41:09;;;;;;;6.93;2.88;;;9.60;99.90;;;;;;5031693;28;20515;-37
2023/04/20 04:43:35;;;;;;;5.85;3.00;;;9.70;99.90;;;;;;5030805;28;20468;-36
2023/04/20 04:46:09;;;;;;;5.50;3.03;;;9.70;99.90;;;;;;5031114;28;20033;-36
2023/04/20 04:48:36;;;;;;;9.05;3.35;;;9.60;99.90;;;;;;5032337;28;20035;-36
2023/04/20 04:51:02;;;;;;;6.70;3.60;;;9.60;99.90;;;;;;5035579;28;20028;-36
2023/04/20 04:53:27;;;;;;;6.32;4.75;;;9.60;99.90;;;;;;5036528;28;20028;-36
2023/04/20 04:55:53;;;;;;;7.60;4.45;;;9.60;99.90;;;;;;5035611;28;20022;-37
2023/04/20 04:58:18;;;;;;;6.88;4.40;;;9.60;99.90;;;;;;5035742;28;20028;-36
2023/04/20 05:00:44;;;;;;;10.20;4.47;;;9.60;99.90;;;;;;5035222;28;20030;-36
2023/04/20 05:03:10;;;;;;;6.55;4.32;;;9.60;99.90;;;;;;5034621;28;20112;-36
2023/04/20 05:05:35;;;;;;;9.13;4.88;;;9.60;99.90;;;;;;5034806;28;20076;-35
2023/04/20 05:08:01;;;;;;;10.68;4.15;;;9.60;99.90;;;;;;5036857;28;20026;-36
2023/04/20 05:10:27;;;;;;;5.93;4.05;;;9.60;99.90;;;;;;5035846;28;20475;-35
2023/04/20 05:12:52;;;;;;;6.78;4.10;;;9.60;99.90;;;;;;5035611;28;20039;-36
2023/04/20 05:15:18;;;;;;;8.63;4.15;;;9.60;99.90;;;;;;5036503;28;20034;-35
2023/04/20 05:17:44;;;;;;;7.18;4.00;;;9.60;99.90;;;;;;5034561;28;20479;-36
2023/04/20 05:20:10;;;;;;;10.23;4.18;;;9.60;99.90;;;;;;5034902;28;20098;-36
2023/04/20 05:22:36;;;;;;;6.75;4.55;;;9.60;99.90;;;;;;5034737;28;20025;-36
2023/04/20 05:25:05;;;;;;;9.38;5.07;;;9.60;99.90;;;;;;5035305;28;20025;-36
2023/04/20 05:27:32;;;;;;;10.55;6.00;;;9.60;99.90;;;;;;5033773;28;20033;-36
2023/04/20 05:29:57;;;;;;;6.75;4.60;;;9.60;99.90;;;;;;5036637;28;20475;-35
2023/04/20 05:32:23;;;;;;;6.95;4.20;;;9.60;99.90;;;;;;5035102;28;20048;-38
2023/04/20 05:34:49;;;;;;;8.13;4.70;;;9.60;99.90;;;;;;5035083;28;20029;-38
2023/04/20 05:37:15;;;;;;;5.18;3.97;;;9.60;99.90;;;;;;5034227;28;20507;-36
2023/04/20 05:39:42;;;;;;;8.18;3.97;;;9.60;99.90;;;;;;5034925;28;20072;-38
2023/04/20 05:42:07;;;;;;;6.45;4.53;;;9.60;99.90;;;;;;5036302;28;20029;-36
2023/04/20 05:44:35;;;;;;;11.35;5.00;;;9.70;99.90;;;;;;5034413;28;20069;-35
2023/04/20 05:47:01;;;;;;;12.30;4.78;;;9.60;99.90;;;;;;5035390;28;20033;-38
2023/04/20 05:49:26;;;;;;;10.30;5.07;;;9.60;99.90;;;;;;5035911;28;20056;-35
2023/04/20 05:51:52;;;;;;;8.35;4.53;;;9.60;99.90;;;;;;5035367;28;20452;-38
2023/04/20 05:54:18;;;;;;;9.52;5.03;;;9.60;99.90;;;;;;5035542;28;20036;-36
2023/04/20 05:56:43;;;;;;;7.93;4.57;;;9.60;99.90;;;;;;5033118;28;20033;-36
2023/04/20 05:59:09;;;;;;;10.40;4.70;;;9.70;99.90;;;;;;5036194;28;20507;-36
2023/04/20 06:01:35;;;;;;;7.32;4.15;;;9.70;99.90;;;;;;5035964;28;20080;-36
2023/04/20 06:04:00;;;;;;;9.63;4.22;;;9.60;99.90;;;;;;5033638;28;20079;-34
2023/04/20 06:06:26;;;;;;;6.95;4.40;;;9.70;99.90;;;;;;5033104;28;20033;-37
2023/04/20 06:08:54;;;;;;;9.10;3.97;;;9.70;99.90;;;;;;5033590;28;20136;-36
2023/04/20 06:11:19;;;;;;;6.18;3.85;;;9.70;99.90;;;;;;5033465;28;20484;-38
2023/04/20 06:13:45;;;;;;;10.38;4.47;;;9.70;99.90;;;;;;5033889;28;20037;-36
2023/04/20 06:16:10;;;;;;;7.55;4.55;;;9.70;99.90;;;;;;5033970;28;20037;-36
2023/04/20 06:18:36;;;;;;;8.25;4.25;;;9.70;99.90;;;;;;5033636;28;20033;-36
2023/04/20 06:21:03;;;;;;;7.75;4.10;;;9.70;99.90;;;;;;5033306;28;20071;-39
2023/04/20 06:23:28;;;;;;;7.45;3.95;;;9.70;99.90;;;;;;5033695;28;20053;-36
2023/04/20 06:25:54;;;;;;;7.38;4.00;;;9.70;99.90;;;;;;5033146;28;20049;-36
2023/04/20 06:28:20;;;;;;;7.40;4.13;;;9.70;99.90;;;;;;5034314;28;20032;-37
2023/04/20 06:30:45;;;;;;;5.85;3.85;;;9.80;99.90;;;;;;5033243;28;20026;-36
2023/04/20 06:33:16;;;;;;;7.18;4.00;;;9.80;99.90;;;;;;5033493;28;20119;-39
2023/04/20 06:35:42;;;;;;;6.10;3.92;;;9.80;99.90;;;;;;5032782;28;20076;-43
2023/04/20 06:38:08;;;;;;;8.15;4.18;;;9.80;99.90;;;;;;5033741;28;20033;-36
2023/04/20 06:40:33;;;;;;;7.38;4.03;;;9.80;99.90;;;;;;5033044;28;20036;-37
2023/04/20 06:42:59;;;;;;;6.80;3.85;;;9.80;99.90;;;;;;5033041;28;20024;-37
2023/04/20 06:45:24;;;;;;;5.13;3.63;;;9.80;99.90;;;;;;5034809;28;20084;-36
2023/04/20 06:47:50;;;;;;;7.13;4.25;;;9.80;99.90;;;;;;5032767;28;20036;-35
2023/04/20 06:50:16;;;;;;;9.43;4.40;;;9.90;99.90;;;;;;5032858;28;20122;-36
2023/04/20 06:52:41;;;;;;;5.40;3.97;;;9.90;99.90;;;;;;5033718;28;20086;-37
2023/04/20 06:55:07;;;;;;;6.43;4.20;;;9.90;99.90;;;;;;5033820;28;20079;-36
2023/04/20 06:57:33;;;;;;;6.25;3.80;;;9.90;99.90;;;;;;5031742;28;20025;-34
2023/04/20 06:59:59;;;;;;;5.97;3.80;;;10.00;99.90;;;;;;5033171;28;20211;-38
2023/04/20 07:02:25;;;;;;;6.00;3.90;;;10.00;99.90;;;;;;5034495;28;20059;-35
2023/04/20 07:04:50;;;;;;;8.25;4.22;;;10.00;99.90;;;;;;5033666;28;20105;-37
2023/04/20 07:07:16;;;;;;;6.55;3.90;;;10.00;99.90;;;;;;5033404;28;20463;-36
2023/04/20 07:09:41;;;;;;;6.95;3.95;;;10.10;99.90;;;;;;5032813;28;20034;-37
2023/04/20 07:12:08;;;;;;;7.05;3.97;;;10.10;99.90;;;;;;5032631;28;20067;-36
2023/04/20 07:14:33;;;;;;;8.57;3.80;;;10.10;99.90;;;;;;5032422;28;20059;-36
2023/04/20 07:16:59;;;;;;;8.68;3.83;;;10.10;99.90;;;;;;5033177;28;20382;-39
2023/04/20 07:19:25;;;;;;;6.18;3.60;;;10.10;99.90;;;;;;5032704;28;20025;-36
2023/04/20 07:21:50;;;;;;;7.07;3.70;;;10.20;99.90;;;;;;5032437;28;20391;-37
2023/04/20 07:24:16;;;;;;;10.32;4.32;;;10.20;99.90;;;;;;5032293;28;20407;-35
2023/04/20 07:26:42;;;;;;;6.93;3.67;;;10.20;99.90;;;;;;5031643;28;20056;-34
2023/04/20 07:29:07;;;;;;;5.22;3.72;;;10.20;99.90;;;;;;5033536;28;20100;-35
2023/04/20 07:31:33;;;;;;;6.82;3.80;;;10.30;99.90;;;;;;5033459;28;20472;-38
2023/04/20 07:33:58;;;;;;;6.13;3.90;;;10.30;99.90;;;;;;5032749;28;20036;-38
2023/04/20 07:36:25;;;;;;;7.25;4.00;;;10.30;99.90;;;;;;5032703;28;20026;-36
2023/04/20 07:38:50;;;;;;;5.40;3.95;;;10.30;99.90;;;;;;5031461;28;20100;-36
2023/04/20 07:41:16;;;;;;;10.13;3.67;;;10.30;99.90;;;;;;5033168;28;20049;-35
2023/04/20 07:43:43;;;;;;;7.03;3.80;;;10.30;99.90;;;;;;5032379;28;20463;-38
2023/04/20 07:46:09;;;;;;;6.57;3.80;;;10.40;99.90;;;;;;5031735;28;20095;-37
2023/04/20 07:48:35;;;;;;;6.82;3.50;;;10.40;99.90;;;;;;5033263;28;20022;-38
2023/04/20 07:51:01;;;;;;;7.05;4.03;;;10.40;99.90;;;;;;5032094;28;20506;-39
2023/04/20 07:53:28;;;;;;;6.07;4.00;;;10.40;99.90;;;;;;5032289;28;20030;-36
2023/04/20 07:55:53;;;;;;;6.75;4.00;;;10.40;99.90;;;;;;5032003;28;20018;-36
2023/04/20 07:58:20;;;;;;;6.85;3.83;;;10.40;99.90;;;;;;5030922;28;20029;-37
2023/04/20 08:00:46;;;;;;;5.53;3.85;;;10.50;99.90;;;;;;5035384;28;20021;-36
2023/04/20 08:03:13;;;;;;;5.80;3.80;;;10.50;99.90;;;;;;5031422;28;20411;-37
2023/04/20 08:05:39;;;;;;;6.13;4.00;;;10.50;99.90;;;;;;5032366;28;20222;-38
2023/04/20 08:08:05;;;;;;;9.15;4.28;;;10.50;99.90;;;;;;5032391;28;20030;-36
2023/04/20 08:10:31;;;;;;;5.50;4.03;;;10.50;99.90;;;;;;5032153;28;20108;-36
2023/04/20 08:12:57;;;;;;;7.85;4.05;;;10.60;99.90;;;;;;5031521;28;20021;-36
2023/04/20 08:15:23;;;;;;;5.88;3.80;;;10.60;99.90;;;;;;5031981;28;20036;-38
2023/04/20 08:17:48;;;;;;;6.68;3.55;;;10.60;99.90;;;;;;5031384;28;20026;-37
2023/04/20 08:20:14;;;;;;;6.82;3.80;;;10.60;99.90;;;;;;5031978;28;20036;-36
2023/04/20 08:22:40;;;;;;;5.88;3.60;;;10.60;99.90;;;;;;5030995;28;20021;-36
2023/04/20 08:25:06;;;;;;;5.63;3.90;;;10.60;99.90;;;;;;5031121;28;20384;-35
2023/04/20 08:27:31;;;;;;;7.70;4.22;;;10.60;99.90;;;;;;5031334;28;20029;-37
2023/04/20 08:29:57;;;;;;;6.32;3.95;;;10.60;99.90;;;;;;5031777;28;20033;-36
2023/04/20 08:32:25;;;;;;;6.85;3.88;;;10.60;99.90;;;;;;5031353;28;20080;-37
2023/04/20 08:34:52;;;;;;;8.57;4.47;;;10.60;99.90;;;;;;5032343;28;20029;-37
2023/04/20 08:37:18;;;;;;;7.25;4.60;;;10.60;99.90;;;;;;5031069;28;20084;-37
2023/04/20 08:39:44;;;;;;;6.47;4.07;;;10.60;99.90;;;;;;5031330;28;20112;-37
2023/04/20 08:42:10;;;;;;;7.07;4.43;;;10.60;99.90;;;;;;5031023;28;20101;-38
2023/04/20 08:44:35;;;;;;;9.55;5.00;;;10.60;99.90;;;;;;5030871;28;20117;-37
2023/04/20 08:47:02;;;;;;;6.03;3.92;;;10.70;99.90;;;;;;5030843;28;20026;-37
2023/04/20 08:49:29;;;;;;;6.43;4.32;;;10.60;99.90;;;;;;5032243;28;20499;-38
2023/04/20 08:51:55;;;;;;;6.72;4.90;;;10.60;99.90;;;;;;5032376;28;20017;-35
2023/04/20 08:54:20;;;;;;;9.68;4.28;;;10.60;99.90;;;;;;5031239;28;20048;-37
2023/04/20 08:56:47;;;;;;;8.98;4.38;;;10.60;99.90;;;;;;5030111;28;20030;-36
2023/04/20 08:59:13;;;;;;;10.32;5.07;;;10.60;99.90;;;;;;5030809;28;20032;-36
2023/04/20 09:01:43;;;;;;;7.18;4.95;;;10.60;99.90;;;;;;5030938;28;20031;-35
2023/04/20 09:04:25;;;;;;;7.35;4.43;;;10.60;99.90;;;;;;5032399;28;20026;-36
2023/04/20 09:06:53;;;;;;;7.60;4.47;;;10.60;99.90;;;;;;5030530;28;20049;-38
2023/04/20 09:09:20;;;;;;;8.75;4.75;;;10.60;99.90;;;;;;5031866;28;20029;-36
2023/04/20 09:11:47;;;;;;;7.10;4.97;;;10.60;99.90;;;;;;5031523;28;20035;-34
2023/04/20 09:14:15;;;;;;;6.45;4.68;;;10.60;99.90;;;;;;5030705;28;20068;-36
2023/04/20 09:16:52;;;;;;;11.02;4.88;;;10.60;99.90;;;;;;5030322;28;20030;-36
2023/04/20 09:19:25;;;;;;;9.15;5.22;;;10.60;99.90;;;;;;5031171;28;20364;-37
2023/04/20 09:21:56;;;;;;;7.07;4.75;;;10.60;99.90;;;;;;5031459;28;20057;-39
2023/04/20 09:24:29;;;;;;;7.35;4.38;;;10.60;99.90;;;;;;5030729;28;20547;-36
2023/04/20 09:26:55;;;;;;;7.85;5.25;;;10.60;99.90;;;;;;5030085;28;20033;-38
2023/04/20 09:29:22;;;;;;;6.82;4.32;;;10.60;99.90;;;;;;5030678;28;20052;-37
2023/04/20 09:31:49;;;;;;;5.80;4.00;;;10.60;99.90;;;;;;5031233;28;20033;-36
2023/04/20 09:34:15;;;;;;;6.93;4.68;;;10.60;99.90;;;;;;5031521;28;20032;-38
2023/04/20 09:36:46;;;;;;;8.00;4.55;;;10.60;99.90;;;;;;5034191;28;20021;-36
2023/04/20 09:39:16;;;;;;;9.38;4.53;;;10.50;99.90;;;;;;5034705;28;20017;-39
2023/04/20 09:41:43;;;;;;;7.72;4.78;;;10.50;99.90;;;;;;5035800;28;20025;-36
2023/04/20 09:44:10;;;;;;;7.15;5.10;;;10.50;99.90;;;;;;5034748;28;20483;-36
2023/04/20 09:46:38;;;;;;;8.18;4.70;;;10.60;99.90;;;;;;5033752;28;20370;-38
2023/04/20 09:49:06;;;;;;;6.30;4.47;;;10.60;99.90;;;;;;5034521;28;20030;-36
2023/04/20 09:51:34;;;;;;;11.68;4.82;;;10.50;99.90;;;;;;5035339;28;20025;-37
2023/04/20 09:54:02;;;;;;;8.95;4.30;;;10.60;99.90;;;;;;5034088;28;20104;-39
2023/04/20 09:56:29;;;;;;;6.97;4.57;;;10.50;99.90;;;;;;5033259;28;20503;-35
2023/04/20 09:58:56;;;;;;;9.80;6.13;;;10.50;99.90;;;;;;5034873;28;20021;-36
2023/04/20 10:01:23;;;;;;;15.27;7.60;;;10.50;99.90;;;;;;5035773;28;20018;-36
2023/04/20 10:03:49;;;;;;;8.52;4.82;;;10.50;99.90;;;;;;5033914;28;20480;-40
2023/04/20 10:06:32;;;;;;;8.55;4.88;;;10.50;99.90;;;;;;5031931;28;20030;-36
2023/04/20 10:09:00;;;;;;;8.75;5.38;;;10.40;99.90;;;;;;5035443;28;20021;-35
2023/04/20 10:11:33;;;;;;;11.43;5.13;;;10.30;99.90;;;;;;5034910;28;20399;-34
2023/04/20 10:14:13;;;;;;;7.25;4.47;;;10.30;99.90;;;;;;5033524;28;20395;-36
2023/04/20 10:16:39;;;;;;;9.63;4.85;;;10.30;99.90;;;;;;5034181;28;20025;-35
2023/04/20 10:19:05;;;;;;;7.53;5.13;;;10.30;99.90;;;;;;5033605;28;20028;-38
2023/04/20 10:21:31;;;;;;;6.63;5.18;;;10.30;99.90;;;;;;5034282;28;20021;-34
2023/04/20 10:24:00;;;;;;;5.85;4.85;;;10.30;99.90;;;;;;5033721;28;20029;-36
2023/04/20 10:26:37;;;;;;;9.60;5.47;;;10.30;99.90;;;;;;5033703;28;20025;-36
2023/04/20 10:29:03;;;;;;;7.10;5.40;;;10.30;99.90;;;;;;5035755;28;20017;-36
2023/04/20 10:31:37;;;;;;;9.10;4.97;;;10.30;99.90;;;;;;5033230;28;20021;-36
2023/04/20 10:34:02;;;;;;;8.40;5.00;;;10.30;99.90;;;;;;5033754;28;20037;-36
2023/04/20 10:36:35;;;;;;;9.70;4.97;;;10.30;99.90;;;;;;5032613;28;20021;-37
2023/04/20 10:39:14;;;;;;;7.70;4.68;;;10.30;99.90;;;;;;5034263;28;20429;-36
2023/04/20 10:41:51;;;;;;;7.57;4.90;;;10.30;99.90;;;;;;5034153;28;20018;-36
2023/04/20 10:44:17;;;;;;;10.45;5.15;;;10.30;99.90;;;;;;5034550;28;20021;-36
2023/04/20 10:46:48;;;;;;;7.25;4.57;;;10.30;99.90;;;;;;5033475;28;20041;-34
2023/04/20 10:49:13;;;;;;;9.73;4.97;;;10.30;99.90;;;;;;5033136;28;20032;-36
2023/04/20 10:51:46;;;;;;;10.35;5.32;;;10.30;99.90;;;;;;5033850;28;20030;-37
2023/04/20 10:54:12;;;;;;;6.82;4.72;;;10.30;99.90;;;;;;5033606;28;20403;-36
2023/04/20 10:56:42;;;;;;;8.23;4.80;;;10.30;99.90;;;;;;5032417;28;20025;-36
2023/04/20 10:59:10;;;;;;;7.15;4.55;;;10.40;99.90;;;;;;5034773;28;20105;-36
2023/04/20 11:01:36;;;;;;;6.78;4.35;;;10.40;99.90;;;;;;5035693;28;20104;-36
2023/04/20 11:04:03;;;;;;;6.45;4.65;;;10.40;99.90;;;;;;5033403;28;20025;-36
2023/04/20 11:06:30;;;;;;;8.05;4.93;;;10.40;99.90;;;;;;5033087;28;20025;-36
2023/04/20 11:08:56;;;;;;;6.43;4.22;;;10.40;99.90;;;;;;5034296;28;20147;-36
2023/04/20 11:11:28;;;;;;;9.00;4.75;;;10.40;99.90;;;;;;5032932;28;20113;-36
2023/04/20 11:14:08;;;;;;;6.78;4.30;;;10.40;99.90;;;;;;5032245;28;20028;-39
2023/04/20 11:16:35;;;;;;;6.68;4.20;;;10.40;99.90;;;;;;5031728;28;20026;-36
2023/04/20 11:19:02;;;;;;;7.13;4.85;;;10.40;99.90;;;;;;5032686;28;20026;-36
2023/04/20 11:21:38;;;;;;;7.05;4.32;;;10.40;99.90;;;;;;5032512;28;20029;-39
2023/04/20 11:24:28;;;;;;;5.65;4.22;;;10.40;99.90;;;;;;5033517;28;20176;-36
2023/04/20 11:26:54;;;;;;;7.43;4.30;;;10.40;99.90;;;;;;5031966;28;20473;-37
2023/04/20 11:29:38;;;;;;;6.78;4.55;;;10.40;99.90;;;;;;5032035;28;20167;-36
2023/04/20 11:32:09;;;;;;;5.90;4.55;;;10.40;99.90;;;;;;5034231;28;20022;-40
2023/04/20 11:34:37;;;;;;;5.93;4.18;;;10.40;99.90;;;;;;5032322;28;20037;-36
2023/04/20 11:37:09;;;;;;;6.70;4.05;;;10.30;99.90;;;;;;5032717;28;20029;-36
2023/04/20 11:39:36;;;;;;;5.40;4.05;;;10.30;99.90;;;;;;5031959;28;20024;-34
2023/04/20 11:42:02;;;;;;;6.85;3.75;;;10.30;99.90;;;;;;5032123;28;20025;-35
2023/04/20 11:44:28;;;;;;;6.28;4.03;;;10.40;99.90;;;;;;5034175;28;20084;-38
2023/04/20 11:46:56;;;;;;;5.88;3.90;;;10.40;99.90;;;;;;5032404;28;20432;-39
2023/04/20 11:49:23;;;;;;;6.30;4.05;;;10.40;99.90;;;;;;5032403;28;20025;-35
2023/04/20 11:51:50;;;;;;;6.03;4.15;;;10.30;99.90;;;;;;5033624;28;20075;-36
2023/04/20 11:54:15;;;;;;;5.05;3.88;;;10.30;99.90;;;;;;5032887;28;20373;-39
2023/04/20 11:56:43;;;;;;;5.22;4.00;;;10.40;99.90;;;;;;5032941;28;20476;-36
2023/04/20 11:59:09;;;;;;;5.63;3.33;;;10.40;99.90;;;;;;5032522;28;20105;-37
2023/04/20 12:01:35;;;;;;;5.22;3.67;;;10.40;99.90;;;;;;5031447;28;20089;-36
2023/04/20 12:04:01;;;;;;;5.82;4.13;;;10.40;99.90;;;;;;5032635;28;20037;-35
2023/04/20 12:06:27;;;;;;;4.78;3.60;;;10.40;99.90;;;;;;5031590;28;20437;-39
2023/04/20 12:08:54;;;;;;;5.30;3.85;;;10.40;99.90;;;;;;5031491;28;20557;-36
2023/04/20 12:11:20;;;;;;;5.47;3.78;;;10.40;99.90;;;;;;5032320;28;20456;-35
2023/04/20 12:13:46;;;;;;;5.03;3.42;;;10.40;99.90;;;;;;5033264;28;20071;-34
2023/04/20 12:16:12;;;;;;;6.80;4.63;;;10.30;99.90;;;;;;5031908;28;20025;-36
2023/04/20 12:18:37;;;;;;;5.40;3.70;;;10.30;99.90;;;;;;5031628;28;20128;-36
2023/04/20 12:21:04;;;;;;;6.20;3.90;;;10.40;99.90;;;;;;5031425;28;20056;-38
2023/04/20 12:23:31;;;;;;;6.65;3.40;;;10.40;99.90;;;;;;5030281;28;20514;-38
2023/04/20 12:25:57;;;;;;;6.30;3.88;;;10.40;99.90;;;;;;5032004;28;20040;-34
2023/04/20 12:28:23;;;;;;;4.72;3.40;;;10.40;99.90;;;;;;5032644;28;20029;-36
2023/04/20 12:30:48;;;;;;;5.28;3.17;;;10.40;99.90;;;;;;5032469;28;20052;-38
2023/04/20 12:33:14;;;;;;;5.10;3.92;;;10.40;99.90;;;;;;5031736;28;20060;-37
2023/04/20 12:35:39;;;;;;;5.97;4.20;;;10.30;99.90;;;;;;5032342;28;20029;-37
2023/04/20 12:38:05;;;;;;;6.03;3.35;;;10.30;99.90;;;;;;5032943;28;20108;-36
2023/04/20 12:40:31;;;;;;;5.15;3.45;;;10.40;99.90;;;;;;5031012;28;20100;-36
2023/04/20 12:42:57;;;;;;;4.88;3.53;;;10.30;99.90;;;;;;5032238;28;20071;-36
2023/04/20 12:45:23;;;;;;;4.40;3.38;;;10.40;99.90;;;;;;5032272;28;20022;-36
2023/04/20 12:47:48;;;;;;;4.88;3.63;;;10.40;99.90;;;;;;5030481;28;20036;-36